Messwerte King Salmon

Temperatur

Temperatur
°C
1638511200 21.00 21.00 -27
1638514800 22.00 22.00 -29
1638518400 23.00 23.00 -27
1638522000 0.00 0.00 -26
1638525600 1.00 1.00 -25
1638529200 2.00 2.00 -27
1638532800 3.00 3.00 -28
1638536400 4.00 4.00 -28
1638540000 5.00 5.00 -30
1638543600 6.00 6.00 -30
1638547200 7.00 7.00 -30
1638550800 8.00 8.00 -30
1638554400 9.00 9.00
1638558000 10.00 10.00 -29
1638561600 11.00 11.00 -26
1638565200 12.00 12.00
1638568800 13.00 13.00 -21
1638572400 14.00 14.00 -20
1638576000 15.00 15.00 -22
1638579600 16.00 16.00 -21
1638583200 17.00 17.00 -20
1638586800 18.00 18.00 -19
1638590400 19.00 19.00 -18
1638594000 20.00 20.00 -18

Aktuellste Messwerte

Wettercharakter
Wetter: bedeckt
Temperatur
-17 °C
Feuchtigkeit
75 %
Wind
5 km/hWindrichtung: Nordost
Luftdruck
1020 hPa
Messzeit: 3. Dezember 2021, 22.00Datenquelle: METAR

Weitere Messstationen in der Nähe

Messstation Temperatur Entfernung
Egegik -15 °C 68 km
Igiugig -16 °C 85 km
Dillingham -18 °C 115 km
Manokotak -18 °C 143 km
Iliamna -20 °C 155 km
Togiac Village -14 °C 220 km
Port Heiden -6 °C 224 km

Wind

Windrichtung Böen Mittelwind
° km/h km/h
1638511200 21.00 20.00 - 21.00 0
1638514800 22.00 21.00 - 22.00 0
1638518400 23.00 22.00 - 23.00 10° 5
1638522000 0.00 23.00 - 0.00 320° 10
1638525600 1.00 0.00 - 1.00 10° 20
1638529200 2.00 1.00 - 2.00 0
1638532800 3.00 2.00 - 3.00 0
1638536400 4.00 3.00 - 4.00 260° 5
1638540000 5.00 4.00 - 5.00 0
1638543600 6.00 5.00 - 6.00 50° 5
1638547200 7.00 6.00 - 7.00 350° 5
1638550800 8.00 7.00 - 8.00 0
1638554400 9.00 8.00 - 9.00
1638558000 10.00 9.00 - 10.00 30° 5
1638561600 11.00 10.00 - 11.00 320° 10
1638565200 12.00 11.00 - 12.00
1638568800 13.00 12.00 - 13.00 10° 5
1638572400 14.00 13.00 - 14.00 30° 5
1638576000 15.00 14.00 - 15.00 350° 5
1638579600 16.00 15.00 - 16.00 350° 5
1638583200 17.00 16.00 - 17.00 360° 10
1638586800 18.00 17.00 - 18.00 360° 5
1638590400 19.00 18.00 - 19.00 0
1638594000 20.00 19.00 - 20.00 10° 5

Ihre Wetterstation

Fehlt Ihre Wetterstation auf unserem Portal?

Schreiben Sie an network@meteonews.ch

Klima

Wann ist es am wärmsten? Wann regnet es am wenigsten? Unsere Klimadaten geben Auskunft.